Dighton, MA

7:28 PM EDT on October 24, 2014 (GMT -0400)
Dighton | Change Station
CLOSE
Current Station
Personal Weather Station
Location: Dighton, MA
Elevation: 49 ft
Nearby Weather Stations

Elev 49 ft 41.82 °N, 71.13 °W | Updated 5 minutes ago

Overcast
Overcast
50.2 °F
Feels Like 50.2 °F
N
0.0
Wind Variable Wind from West

Today
High -- | Low -- °F
--% Chance of Precip.
Yesterday
High -- | Low -- °F
Precip. -- in
7:07 AM 5:49 PM
New Moon, 1% visible
Pressure 29.73 in
Visibility 10.0 miles
Clouds Overcast 3000 ft
Dew Point 47 °F
Humidity 88%
Rainfall 0.05 in
Snow Depth Not available.
UV 0 out of 12
Pollen .10 out of 12
PM2.5 Good
Flu Activity No Activity
METAR KTAN 242252Z AUTO 30003KT 10SM OVC030 11/07 A2973 RMK AO2 SLP066 T01110067

More Conditions Fewer Conditions

Pressure 29.73 in
Visibility 10.0 miles
Clouds Overcast 3000 ft
Dew Point 47 °F
Humidity 88%
Rainfall 0.05 in
Snow Depth Not available.
UV 0 out of 12
Pollen .10 out of 12
PM2.5 Good
Flu Activity No Activity
METAR KTAN 242252Z AUTO 30003KT 10SM OVC030 11/07 A2973 RMK AO2 SLP066 T01110067

More Conditions Fewer Conditions

10-Day Weather Forecast

Almanac

Astronomy

Oct. 24, 2014 Rise Set
Actual Time 7:07 AM EDT 5:49 PM EDT
Civil Twilight 6:38 AM EDT 6:18 PM EDT
Nautical Twilight 6:06 AM EDT 6:50 PM EDT
Astronomical Twilight 5:33 AM EDT 7:22 PM EDT
Moon 7:43 AM EDT 6:26 PM EDT
Length of Visible Light 11h 39m
Length of Day
10h 42m
Tomorrow will be 2m 36s shorter.
New Moon, 1% of the Moon is Illuminated
Today
New Moon
Oct 30
First Quarter
Nov 6
Full
Nov 14
Last Quarter
Nov 22
New

Today's Extremes

State Highs State Lows

Community

WunderPhotos

Upload Photos

1,764,710 photos uploaded!

Nearby

Air Quality

  Air Quality AQ Index Pollutant
Yesterday Good
OZONE
Yesterday Good
PM2.5
Current Good
PM2.5
Friday Good
PM2.5
Friday Good
OZONE
Saturday Good
PM2.5
Saturday Good
OZONE

Snow Depth

Station Depth Elevation
No new snow has been reported.

Earthquake Activity

City Distance Mag. Time & Date
No recent earthquake activity has been reported nearby.
Minimum magnitude displayed is 2.5.

Coastal Water Temperatures

Place Temperature
Newport, RI 60.1 °F
Quonset Point, RI 57.9 °F
Conimicut Light, RI 60.1 °F

Nearby Weather Stations